createdAt,value
2023-06-30T00:00:10.906Z,76.29
2023-06-30T00:02:44.254Z,76.39
2023-06-30T00:05:17.795Z,76.55
2023-06-30T00:07:50.094Z,76.84
2023-06-30T00:10:23.030Z,77.06
2023-06-30T00:12:55.409Z,77.12
2023-06-30T00:15:30.426Z,77.02
2023-06-30T00:18:02.788Z,77.21
2023-06-30T00:20:35.217Z,77.11
2023-06-30T00:23:10.381Z,77.74
2023-06-30T00:25:42.914Z,78.29
2023-06-30T00:28:15.502Z,78.03
2023-06-30T00:30:50.612Z,78.28
2023-06-30T00:33:23.088Z,78.25
2023-06-30T00:35:55.444Z,78.29
2023-06-30T00:38:27.857Z,78.41
2023-06-30T00:41:00.326Z,78.40
2023-06-30T00:43:32.846Z,78.36
2023-06-30T00:46:07.951Z,78.38
2023-06-30T00:48:40.399Z,78.54
2023-06-30T00:51:13.729Z,78.62
2023-06-30T00:53:46.190Z,78.69
2023-06-30T00:56:18.649Z,78.77
2023-06-30T00:58:51.094Z,78.98
2023-06-30T01:01:34.003Z,79.06
2023-06-30T01:04:21.850Z,79.35
2023-06-30T01:07:03.673Z,79.18
2023-06-30T01:09:41.909Z,79.51
2023-06-30T01:12:14.726Z,79.34
2023-06-30T01:14:49.757Z,79.36
2023-06-30T01:17:28.101Z,79.39
2023-06-30T01:20:02.582Z,79.33
2023-06-30T01:22:41.117Z,79.60
2023-06-30T01:25:19.897Z,79.58
2023-06-30T01:27:54.248Z,79.55
2023-06-30T01:30:30.640Z,79.47
2023-06-30T01:33:06.169Z,79.53
2023-06-30T01:35:39.295Z,79.63
2023-06-30T01:38:12.713Z,79.54
2023-06-30T01:40:45.010Z,79.88
2023-06-30T01:43:18.597Z,80.14
2023-06-30T01:45:51.096Z,80.30
2023-06-30T01:48:26.820Z,80.29
2023-06-30T01:51:00.933Z,80.52
2023-06-30T01:53:33.336Z,80.67
2023-06-30T01:56:05.800Z,80.71
2023-06-30T01:58:38.178Z,80.58
2023-06-30T02:01:10.694Z,80.74
2023-06-30T02:03:45.670Z,80.67
2023-06-30T02:06:18.200Z,80.76
2023-06-30T02:08:50.540Z,80.84
2023-06-30T02:11:25.116Z,81.00
2023-06-30T02:13:57.550Z,80.83
2023-06-30T02:16:30.092Z,80.92
2023-06-30T02:19:05.042Z,80.74
2023-06-30T02:21:37.299Z,80.80
2023-06-30T02:24:10.342Z,81.41
2023-06-30T02:26:42.764Z,81.45
2023-06-30T02:29:14.992Z,81.49
2023-06-30T02:31:47.493Z,81.45
2023-06-30T02:34:22.731Z,81.53
2023-06-30T02:36:55.023Z,81.49
2023-06-30T02:39:27.791Z,81.37
2023-06-30T02:42:00.152Z,81.33
2023-06-30T02:44:32.545Z,81.38
2023-06-30T02:47:04.845Z,81.28
2023-06-30T02:49:39.845Z,81.24
2023-06-30T02:52:12.603Z,81.24
2023-06-30T02:54:44.893Z,81.12
2023-06-30T02:57:17.220Z,81.07
2023-06-30T02:59:49.594Z,80.93
2023-06-30T03:02:22.316Z,80.83
2023-06-30T03:04:57.756Z,80.66
2023-06-30T03:07:30.265Z,80.39
2023-06-30T03:10:02.714Z,80.07
2023-06-30T03:12:35.092Z,79.94
2023-06-30T03:15:07.812Z,80.21
2023-06-30T03:17:41.475Z,80.16
2023-06-30T03:20:17.083Z,79.77
2023-06-30T03:22:49.422Z,79.76
2023-06-30T03:25:22.856Z,79.78
2023-06-30T03:27:55.260Z,80.09
2023-06-30T03:30:27.635Z,80.13
2023-06-30T03:33:00.105Z,80.17
2023-06-30T03:35:35.236Z,80.25
2023-06-30T03:38:07.700Z,80.22
2023-06-30T03:40:40.038Z,79.97
2023-06-30T03:43:12.395Z,79.87
2023-06-30T03:45:45.010Z,79.74
2023-06-30T03:48:17.516Z,79.75
2023-06-30T03:50:56.831Z,79.91
2023-06-30T03:53:29.226Z,79.97
2023-06-30T03:56:02.212Z,79.86
2023-06-30T03:58:34.493Z,79.92
2023-06-30T04:01:06.913Z,80.33
2023-06-30T04:03:39.946Z,80.45
2023-06-30T04:06:15.624Z,80.31
2023-06-30T04:08:48.180Z,80.41
2023-06-30T04:11:20.576Z,80.41
2023-06-30T04:13:52.972Z,80.22
2023-06-30T04:16:25.635Z,80.15
2023-06-30T04:18:57.937Z,80.07
2023-06-30T04:21:32.850Z,80.23
2023-06-30T04:24:05.238Z,80.68
2023-06-30T04:26:37.897Z,81.08
2023-06-30T04:29:10.236Z,81.21
2023-06-30T04:31:42.527Z,81.04
2023-06-30T04:34:14.898Z,81.11
2023-06-30T04:36:52.884Z,81.58
2023-06-30T04:39:25.232Z,81.44
2023-06-30T04:41:57.540Z,81.33
2023-06-30T04:44:30.401Z,81.26
2023-06-30T04:47:02.734Z,81.04
2023-06-30T04:49:35.124Z,80.89
2023-06-30T04:52:10.938Z,80.99
2023-06-30T04:54:43.348Z,80.79
2023-06-30T04:57:15.938Z,80.87
2023-06-30T04:59:48.307Z,80.56
2023-06-30T05:02:20.773Z,80.30
2023-06-30T05:04:53.624Z,80.31
2023-06-30T05:07:29.125Z,79.83
2023-06-30T05:10:01.411Z,79.80
2023-06-30T05:12:33.695Z,79.38
2023-06-30T05:15:06.089Z,79.14
2023-06-30T05:17:38.673Z,78.99
2023-06-30T05:20:12.729Z,78.69
2023-06-30T05:22:47.693Z,78.41
2023-06-30T05:25:20.103Z,77.92
2023-06-30T05:27:52.398Z,77.49
2023-06-30T05:30:24.955Z,77.19
2023-06-30T05:32:57.618Z,76.79
2023-06-30T05:35:30.041Z,76.46
2023-06-30T05:38:05.110Z,76.12
2023-06-30T05:40:37.543Z,75.79
2023-06-30T05:43:09.938Z,74.99
2023-06-30T05:45:42.519Z,74.99
2023-06-30T05:48:14.995Z,74.28
2023-06-30T05:50:48.082Z,73.59
2023-06-30T05:53:23.282Z,73.20
2023-06-30T05:55:57.202Z,72.78
2023-06-30T05:58:30.106Z,71.68
2023-06-30T06:01:02.392Z,71.81
2023-06-30T06:03:34.893Z,71.40
2023-06-30T06:06:07.648Z,70.91
2023-06-30T06:08:44.505Z,70.01
2023-06-30T06:11:16.821Z,69.73
2023-06-30T06:13:49.399Z,69.30
2023-06-30T06:16:21.781Z,69.04
2023-06-30T06:18:54.249Z,68.39
2023-06-30T06:21:31.465Z,68.43
2023-06-30T06:24:06.751Z,68.44
2023-06-30T06:26:39.335Z,68.11
2023-06-30T06:29:14.306Z,67.18
2023-06-30T06:31:46.786Z,65.64
2023-06-30T06:34:19.178Z,66.06
2023-06-30T06:36:51.872Z,65.22
2023-06-30T06:39:26.892Z,63.36
2023-06-30T06:41:59.735Z,61.87
2023-06-30T06:44:32.399Z,60.82
2023-06-30T06:47:34.773Z,59.95
2023-06-30T06:50:07.364Z,58.94
2023-06-30T06:52:39.692Z,57.42
2023-06-30T06:55:15.459Z,57.03
2023-06-30T06:57:49.983Z,55.93
2023-06-30T07:00:23.016Z,55.85
2023-06-30T07:02:55.867Z,54.19
2023-06-30T07:05:28.249Z,54.01
2023-06-30T07:08:00.815Z,52.91
2023-06-30T07:10:36.699Z,52.71
2023-06-30T07:13:09.778Z,52.55
2023-06-30T07:15:42.170Z,52.35
2023-06-30T07:18:14.663Z,52.52
2023-06-30T07:20:47.076Z,51.98
2023-06-30T07:23:19.892Z,51.74
2023-06-30T07:25:54.823Z,51.58
2023-06-30T07:28:27.196Z,51.33
2023-06-30T07:30:59.528Z,50.88
2023-06-30T07:33:31.942Z,51.15
2023-06-30T07:36:04.413Z,49.85
2023-06-30T07:38:36.695Z,49.72
2023-06-30T07:41:11.666Z,49.37
2023-06-30T07:43:44.000Z,49.74
2023-06-30T07:46:16.523Z,50.34
2023-06-30T07:48:48.961Z,49.63
2023-06-30T07:51:21.389Z,49.44
2023-06-30T07:53:54.151Z,49.81
2023-06-30T07:56:29.478Z,49.57
2023-06-30T07:59:01.778Z,50.27
2023-06-30T08:01:34.141Z,49.57
2023-06-30T08:04:06.712Z,48.89
2023-06-30T08:06:39.389Z,48.91
2023-06-30T08:09:11.804Z,48.64
2023-06-30T08:11:46.762Z,48.17
2023-06-30T08:14:19.085Z,49.01
2023-06-30T08:16:51.591Z,48.87
2023-06-30T08:19:49.198Z,48.22
2023-06-30T08:22:17.446Z,47.51
2023-06-30T08:24:50.214Z,46.75
2023-06-30T08:27:25.302Z,46.64
2023-06-30T08:29:57.566Z,46.75
2023-06-30T08:32:29.933Z,46.37
2023-06-30T08:35:02.344Z,46.00
2023-06-30T08:37:35.080Z,46.48
2023-06-30T08:40:07.931Z,46.32
2023-06-30T08:42:50.363Z,45.73
2023-06-30T08:45:25.430Z,44.93
2023-06-30T08:47:59.009Z,45.00
2023-06-30T08:50:32.029Z,44.96
2023-06-30T08:53:05.061Z,44.32
2023-06-30T08:55:37.600Z,43.66
2023-06-30T08:58:21.053Z,43.25
2023-06-30T09:00:58.176Z,42.43
2023-06-30T09:03:30.885Z,42.04
2023-06-30T09:06:04.599Z,42.64
2023-06-30T09:08:46.613Z,42.55
2023-06-30T09:11:21.504Z,42.11
2023-06-30T09:14:03.999Z,41.15
2023-06-30T09:16:37.021Z,41.27
2023-06-30T09:19:10.129Z,41.35
2023-06-30T09:21:43.145Z,41.94
2023-06-30T09:24:15.694Z,42.15
2023-06-30T09:26:50.864Z,42.03
2023-06-30T09:29:30.328Z,41.53
2023-06-30T09:32:06.510Z,40.40
2023-06-30T09:34:38.957Z,40.71
2023-06-30T09:37:12.639Z,40.99
2023-06-30T09:39:54.561Z,41.57
2023-06-30T09:42:27.462Z,40.84
2023-06-30T09:45:02.337Z,40.47
2023-06-30T09:47:34.750Z,39.68
2023-06-30T09:50:10.287Z,39.27
2023-06-30T09:52:42.908Z,39.49
2023-06-30T09:55:16.532Z,40.20
2023-06-30T09:57:48.886Z,40.33
2023-06-30T10:00:35.417Z,40.45
2023-06-30T10:03:11.240Z,41.47
2023-06-30T10:05:44.037Z,40.57
2023-06-30T10:08:17.840Z,40.98
2023-06-30T10:10:50.677Z,40.00
2023-06-30T10:13:24.367Z,39.14
2023-06-30T10:16:02.369Z,38.23
2023-06-30T10:18:38.223Z,38.21
2023-06-30T10:21:10.728Z,38.33
2023-06-30T10:23:44.711Z,39.14
2023-06-30T10:26:21.401Z,39.44
2023-06-30T10:28:54.302Z,40.79
2023-06-30T10:31:36.760Z,40.87
2023-06-30T10:34:10.314Z,40.72
2023-06-30T10:36:44.267Z,40.35
2023-06-30T10:39:18.489Z,40.07
2023-06-30T10:41:51.570Z,40.01
2023-06-30T10:44:23.977Z,39.19
2023-06-30T10:47:01.921Z,38.71
2023-06-30T10:49:38.035Z,38.11
2023-06-30T10:52:15.027Z,38.10
2023-06-30T10:54:51.795Z,38.26
2023-06-30T10:57:29.817Z,38.37
2023-06-30T11:00:15.842Z,38.66
2023-06-30T11:02:59.166Z,39.10
2023-06-30T11:05:34.191Z,38.81
2023-06-30T11:08:12.136Z,39.33
2023-06-30T11:10:52.038Z,39.18
2023-06-30T11:13:43.262Z,37.90
2023-06-30T11:16:15.680Z,37.54
2023-06-30T11:19:04.077Z,37.28
2023-06-30T11:21:36.524Z,36.74
2023-06-30T11:24:19.671Z,37.01
2023-06-30T11:26:52.258Z,36.84
2023-06-30T11:29:24.749Z,36.27
2023-06-30T11:31:57.174Z,36.56
2023-06-30T11:34:33.008Z,37.02
2023-06-30T11:37:09.955Z,37.29
2023-06-30T11:39:42.333Z,37.90
2023-06-30T11:42:14.652Z,37.88
2023-06-30T11:44:47.032Z,38.37
2023-06-30T11:47:22.484Z,38.43
2023-06-30T11:50:00.673Z,38.12
2023-06-30T11:52:34.172Z,38.35
2023-06-30T11:55:10.269Z,37.48
2023-06-30T11:57:45.089Z,36.78
2023-06-30T12:00:21.128Z,37.19
2023-06-30T12:02:55.020Z,37.82
2023-06-30T12:05:31.202Z,38.25
2023-06-30T12:08:03.865Z,37.52
2023-06-30T12:10:43.492Z,36.54
2023-06-30T12:13:16.169Z,36.97
2023-06-30T12:15:48.556Z,36.98
2023-06-30T12:18:20.885Z,37.06
2023-06-30T12:20:55.797Z,36.90
2023-06-30T12:23:32.976Z,36.81
2023-06-30T12:26:05.668Z,36.56
2023-06-30T12:28:38.135Z,36.12
2023-06-30T12:31:10.594Z,36.54
2023-06-30T12:33:42.847Z,36.88
2023-06-30T12:36:17.724Z,37.19
2023-06-30T12:38:50.085Z,37.76
2023-06-30T12:41:22.476Z,38.50
2023-06-30T12:43:57.208Z,38.23
2023-06-30T12:46:29.919Z,38.73
2023-06-30T12:49:02.332Z,39.42
2023-06-30T12:51:37.380Z,39.83
2023-06-30T12:54:09.985Z,38.37
2023-06-30T12:56:42.350Z,36.85
2023-06-30T12:59:14.779Z,36.29
2023-06-30T13:01:47.173Z,35.75
2023-06-30T13:04:19.807Z,35.36
2023-06-30T13:06:54.996Z,35.60
2023-06-30T13:09:27.368Z,36.07
2023-06-30T13:11:59.991Z,36.56
2023-06-30T13:14:32.766Z,36.31
2023-06-30T13:17:05.180Z,35.73
2023-06-30T13:19:37.474Z,34.68
2023-06-30T13:22:13.442Z,34.88
2023-06-30T13:24:47.446Z,34.41
2023-06-30T13:27:19.940Z,33.80
2023-06-30T13:29:54.718Z,33.70
2023-06-30T13:32:27.317Z,32.52
2023-06-30T13:34:59.703Z,33.23
2023-06-30T13:37:34.736Z,33.62
2023-06-30T13:40:08.316Z,33.82
2023-06-30T13:42:40.710Z,34.39
2023-06-30T13:45:14.847Z,34.64
2023-06-30T13:47:48.378Z,33.88
2023-06-30T13:50:21.115Z,33.56
2023-06-30T13:52:56.158Z,33.90
2023-06-30T13:55:31.213Z,33.88
2023-06-30T13:58:05.126Z,32.61
2023-06-30T14:00:37.473Z,32.10
2023-06-30T14:03:10.010Z,32.11
2023-06-30T14:05:42.666Z,32.14
2023-06-30T14:08:17.747Z,31.44
2023-06-30T14:10:50.145Z,31.69
2023-06-30T14:13:22.454Z,31.54
2023-06-30T14:15:54.812Z,31.74
2023-06-30T14:18:27.062Z,31.19
2023-06-30T14:20:59.406Z,32.01
2023-06-30T14:23:41.481Z,31.22
2023-06-30T14:26:15.071Z,30.25
2023-06-30T14:28:47.393Z,29.12
2023-06-30T14:31:20.051Z,29.90
2023-06-30T14:33:52.446Z,28.88
2023-06-30T14:36:25.014Z,27.84
2023-06-30T14:38:59.852Z,28.45
2023-06-30T14:41:32.319Z,28.26
2023-06-30T14:44:04.630Z,27.94
2023-06-30T14:46:37.050Z,28.50
2023-06-30T14:49:09.379Z,29.08
2023-06-30T14:51:44.584Z,28.51
2023-06-30T14:54:19.502Z,27.56
2023-06-30T14:56:52.601Z,28.11
2023-06-30T14:59:24.958Z,29.25
2023-06-30T15:01:57.370Z,28.89
2023-06-30T15:04:29.716Z,28.63
2023-06-30T15:07:02.271Z,28.92
2023-06-30T15:09:38.249Z,29.52
2023-06-30T15:12:12.360Z,29.55
2023-06-30T15:14:44.870Z,30.20
2023-06-30T15:17:18.500Z,31.21
2023-06-30T15:19:51.347Z,32.24
2023-06-30T15:22:23.779Z,32.97
2023-06-30T15:25:00.765Z,33.33
2023-06-30T15:27:33.550Z,33.35
2023-06-30T15:30:07.550Z,33.28
2023-06-30T15:32:40.111Z,33.50
2023-06-30T15:35:13.338Z,33.68
2023-06-30T15:37:46.390Z,34.21
2023-06-30T15:40:21.393Z,34.72
2023-06-30T15:42:53.769Z,35.12
2023-06-30T15:45:26.138Z,35.50
2023-06-30T15:47:59.535Z,35.89
2023-06-30T15:50:37.099Z,36.02
2023-06-30T15:53:11.752Z,36.06
2023-06-30T15:55:48.219Z,36.11
2023-06-30T15:58:20.712Z,36.22
2023-06-30T16:00:53.072Z,36.69
2023-06-30T16:03:25.545Z,36.25
2023-06-30T16:05:58.056Z,36.37
2023-06-30T16:08:30.378Z,36.88
2023-06-30T16:11:05.318Z,37.75
2023-06-30T16:13:37.593Z,38.15
2023-06-30T16:16:10.561Z,38.15
2023-06-30T16:18:42.916Z,35.76
2023-06-30T16:21:15.241Z,31.23
2023-06-30T16:23:47.547Z,29.66
2023-06-30T16:26:23.069Z,29.48
2023-06-30T16:28:55.437Z,29.41
2023-06-30T16:31:27.725Z,29.94
2023-06-30T16:34:01.147Z,30.54
2023-06-30T16:36:33.610Z,31.84
2023-06-30T16:39:06.326Z,33.08
2023-06-30T16:41:41.193Z,34.74
2023-06-30T16:44:13.506Z,36.17
2023-06-30T16:46:45.948Z,37.45
2023-06-30T16:49:18.387Z,38.23
2023-06-30T16:51:50.745Z,38.87
2023-06-30T16:54:23.106Z,39.55
2023-06-30T16:56:59.202Z,39.93
2023-06-30T16:59:31.532Z,40.16
2023-06-30T17:02:03.932Z,40.40
2023-06-30T17:04:38.907Z,40.69
2023-06-30T17:07:15.811Z,40.94
2023-06-30T17:09:48.122Z,41.30
2023-06-30T17:12:23.073Z,41.13
2023-06-30T17:14:55.625Z,41.39
2023-06-30T17:17:32.525Z,41.91
2023-06-30T17:20:05.605Z,42.39
2023-06-30T17:22:38.681Z,42.33
2023-06-30T17:25:12.348Z,42.63
2023-06-30T17:27:48.299Z,42.80
2023-06-30T17:30:20.780Z,43.29
2023-06-30T17:32:53.201Z,43.51
2023-06-30T17:35:25.616Z,43.75
2023-06-30T17:37:58.045Z,44.16
2023-06-30T17:40:30.508Z,44.66
2023-06-30T17:43:05.439Z,44.92
2023-06-30T17:45:37.844Z,44.97
2023-06-30T17:48:12.246Z,45.12
2023-06-30T17:50:44.610Z,45.13
2023-06-30T17:53:16.918Z,45.34
2023-06-30T17:55:54.885Z,45.37
2023-06-30T17:58:29.842Z,45.08
2023-06-30T18:01:08.014Z,45.01
2023-06-30T18:03:40.421Z,45.27
2023-06-30T18:06:12.726Z,45.59
2023-06-30T18:08:44.989Z,45.91
2023-06-30T18:11:17.293Z,46.11
2023-06-30T18:13:52.332Z,46.30
2023-06-30T18:16:25.542Z,46.22
2023-06-30T18:18:57.916Z,46.52
2023-06-30T18:21:30.225Z,46.81
2023-06-30T18:24:02.604Z,47.22
2023-06-30T18:26:35.162Z,47.55
2023-06-30T18:29:10.056Z,47.67
2023-06-30T18:31:42.369Z,47.65
2023-06-30T18:34:14.764Z,47.60
2023-06-30T18:36:47.519Z,47.65
2023-06-30T18:39:20.224Z,47.61
2023-06-30T18:41:52.955Z,47.63
2023-06-30T18:44:35.663Z,47.46
2023-06-30T18:47:09.070Z,47.84
2023-06-30T18:49:42.463Z,47.81
2023-06-30T18:52:16.188Z,47.39
2023-06-30T18:54:48.899Z,47.05
2023-06-30T18:57:21.350Z,46.34
2023-06-30T18:59:56.994Z,46.28
2023-06-30T19:02:32.068Z,46.01
2023-06-30T19:05:04.607Z,45.60
2023-06-30T19:07:37.042Z,45.25
2023-06-30T19:10:10.661Z,45.29
2023-06-30T19:12:43.100Z,45.45
2023-06-30T19:15:18.260Z,45.35
2023-06-30T19:17:52.261Z,45.53
2023-06-30T19:20:24.643Z,45.31
2023-06-30T19:22:57.018Z,45.56
2023-06-30T19:25:29.575Z,45.90
2023-06-30T19:28:08.095Z,46.20
2023-06-30T19:30:42.951Z,46.55
2023-06-30T19:33:15.952Z,46.93
2023-06-30T19:35:48.617Z,47.20
2023-06-30T19:38:21.137Z,47.45
2023-06-30T19:40:53.509Z,47.53
2023-06-30T19:43:26.318Z,47.86
2023-06-30T19:46:02.699Z,48.03
2023-06-30T19:48:35.144Z,48.09
2023-06-30T19:51:07.559Z,48.41
2023-06-30T19:53:40.856Z,48.61
2023-06-30T19:56:15.664Z,48.71
2023-06-30T19:58:48.201Z,48.82
2023-06-30T20:01:26.907Z,48.68
2023-06-30T20:03:59.221Z,48.99
2023-06-30T20:06:31.929Z,48.98
2023-06-30T20:09:04.312Z,49.12
2023-06-30T20:11:36.632Z,49.46
2023-06-30T20:14:08.874Z,49.60
2023-06-30T20:16:44.193Z,49.68
2023-06-30T20:19:16.551Z,49.88
2023-06-30T20:21:48.880Z,50.08
2023-06-30T20:24:21.212Z,50.44
2023-06-30T20:26:53.688Z,50.78
2023-06-30T20:29:26.007Z,50.85
2023-06-30T20:32:00.926Z,50.93
2023-06-30T20:34:33.203Z,50.86
2023-06-30T20:37:05.635Z,51.08
2023-06-30T20:39:39.702Z,51.22
2023-06-30T20:42:12.700Z,51.39
2023-06-30T20:44:45.070Z,51.44
2023-06-30T20:47:20.325Z,51.61
2023-06-30T20:49:52.687Z,51.85
2023-06-30T20:52:25.073Z,52.02
2023-06-30T20:54:57.445Z,52.15
2023-06-30T20:57:29.793Z,52.27
2023-06-30T21:00:02.206Z,52.40
2023-06-30T21:02:37.317Z,52.51
2023-06-30T21:05:10.754Z,52.78
2023-06-30T21:07:43.477Z,52.99
2023-06-30T21:10:16.814Z,53.12
2023-06-30T21:12:50.054Z,53.33
2023-06-30T21:15:24.202Z,53.39
2023-06-30T21:17:59.098Z,53.53
2023-06-30T21:20:31.464Z,53.62
2023-06-30T21:23:03.748Z,53.68
2023-06-30T21:25:36.115Z,53.75
2023-06-30T21:28:08.772Z,53.67
2023-06-30T21:30:42.578Z,53.46
2023-06-30T21:33:18.196Z,53.33
2023-06-30T21:35:50.786Z,53.23
2023-06-30T21:38:23.257Z,53.31
2023-06-30T21:40:55.569Z,53.29
2023-06-30T21:43:27.962Z,53.45
2023-06-30T21:46:01.712Z,53.37
2023-06-30T21:48:36.611Z,53.45
2023-06-30T21:51:08.925Z,53.27
2023-06-30T21:53:41.304Z,53.29
2023-06-30T21:56:14.083Z,53.56
2023-06-30T21:58:46.405Z,53.76
2023-06-30T22:01:22.776Z,54.07
2023-06-30T22:04:00.858Z,54.58
2023-06-30T22:06:33.328Z,55.05
2023-06-30T22:09:15.205Z,55.59
2023-06-30T22:11:49.027Z,55.89
2023-06-30T22:14:21.499Z,56.12
2023-06-30T22:16:54.286Z,56.09
2023-06-30T22:19:29.146Z,55.83
2023-06-30T22:22:07.769Z,55.55
2023-06-30T22:24:41.174Z,55.23
2023-06-30T22:27:13.637Z,55.09
2023-06-30T22:29:45.963Z,54.76
2023-06-30T22:32:18.248Z,54.59
2023-06-30T22:34:53.141Z,54.00
2023-06-30T22:37:25.668Z,53.75
2023-06-30T22:39:57.891Z,53.55
2023-06-30T22:42:30.146Z,53.72
2023-06-30T22:45:02.679Z,53.61
2023-06-30T22:47:35.358Z,53.66
2023-06-30T22:50:11.676Z,53.69
2023-06-30T22:52:44.152Z,53.78
2023-06-30T22:55:16.518Z,53.81
2023-06-30T22:57:49.126Z,53.84
2023-06-30T23:00:22.154Z,53.75
2023-06-30T23:02:54.938Z,53.77
2023-06-30T23:05:29.900Z,53.82
2023-06-30T23:08:02.471Z,53.64
2023-06-30T23:10:34.778Z,53.67
2023-06-30T23:13:07.162Z,53.61
2023-06-30T23:15:39.481Z,53.78
2023-06-30T23:18:15.685Z,53.85
2023-06-30T23:20:52.934Z,53.83
2023-06-30T23:23:29.364Z,53.86
2023-06-30T23:26:03.001Z,53.64
2023-06-30T23:28:35.296Z,53.65
2023-06-30T23:31:08.345Z,53.64
2023-06-30T23:33:44.222Z,53.58
2023-06-30T23:36:19.330Z,53.52
2023-06-30T23:38:51.634Z,53.47
2023-06-30T23:41:24.005Z,53.38
2023-06-30T23:43:56.629Z,53.53
2023-06-30T23:46:30.965Z,53.38
2023-06-30T23:49:03.406Z,53.38
2023-06-30T23:51:38.386Z,53.44
2023-06-30T23:54:10.892Z,53.54
2023-06-30T23:56:43.146Z,53.78
2023-06-30T23:59:15.726Z,54.02
